Terminal Aerodrome Forecast
Issued by NWS Boise, ID

Current Version | Previous Version | Text Only | Print | Product List | Glossary On
Versions: 1 2 3 4 5 6 7 8 9 10 11 12 13 14 15 16 17
000
FTUS45 KBOI 251720
TAFBNO
TAF
KBNO 251720Z 2518/2618 07008KT P6SM OVC100
     FM252200 VRB05KT P6SM -SHRA VCTS OVC050CB
      TEMPO 2600/2603 VRB20G30KT -TSRA OVC050CB
     FM260400 29012G20KT P6SM -SHRA OVC050
     FM260800 27011KT P6SM OVC100=

USA.gov is the U.S. government's official web portal to all federal, state and local government web resources and services.